createdAt,value
2023-07-23T00:01:11.856Z,16.55
2023-07-23T00:03:39.019Z,16.42
2023-07-23T00:06:06.152Z,16.39
2023-07-23T00:08:37.322Z,16.37
2023-07-23T00:11:04.388Z,16.39
2023-07-23T00:13:30.998Z,16.32
2023-07-23T00:15:57.685Z,16.23
2023-07-23T00:18:27.412Z,16.23
2023-07-23T00:20:53.994Z,16.25
2023-07-23T00:23:20.601Z,16.33
2023-07-23T00:25:47.267Z,16.25
2023-07-23T00:28:16.813Z,16.17
2023-07-23T00:30:45.659Z,16.22
2023-07-23T00:33:12.668Z,16.18
2023-07-23T00:35:39.916Z,16.19
2023-07-23T00:38:06.569Z,16.04
2023-07-23T00:40:33.208Z,16.08
2023-07-23T00:43:02.010Z,16.08
2023-07-23T00:45:28.626Z,16.04
2023-07-23T00:47:55.355Z,16.03
2023-07-23T00:50:24.759Z,16.03
2023-07-23T00:52:54.683Z,16.06
2023-07-23T00:55:21.765Z,16.00
2023-07-23T00:57:48.472Z,15.94
2023-07-23T01:00:15.756Z,16.02
2023-07-23T01:02:45.566Z,15.98
2023-07-23T01:05:15.067Z,15.85
2023-07-23T01:07:46.389Z,15.81
2023-07-23T01:10:13.948Z,15.85
2023-07-23T01:12:44.873Z,15.83
2023-07-23T01:15:13.919Z,15.85
2023-07-23T01:17:42.557Z,15.81
2023-07-23T01:20:12.494Z,15.75
2023-07-23T01:22:41.741Z,15.68
2023-07-23T01:25:08.681Z,15.69
2023-07-23T01:27:35.363Z,15.65
2023-07-23T01:30:02.642Z,15.57
2023-07-23T01:32:34.409Z,15.60
2023-07-23T01:35:07.502Z,15.50
2023-07-23T01:37:40.397Z,15.54
2023-07-23T01:40:10.026Z,15.52
2023-07-23T01:42:39.099Z,15.43
2023-07-23T01:45:08.538Z,15.39
2023-07-23T01:47:35.176Z,15.41
2023-07-23T01:50:06.259Z,15.38
2023-07-23T01:52:38.858Z,15.42
2023-07-23T01:55:06.071Z,15.39
2023-07-23T01:57:35.403Z,15.30
2023-07-23T02:00:06.759Z,15.30
2023-07-23T02:02:35.936Z,15.31
2023-07-23T02:05:03.753Z,15.28
2023-07-23T02:07:30.558Z,15.30
2023-07-23T02:09:57.164Z,15.26
2023-07-23T02:12:28.604Z,15.28
2023-07-23T02:14:57.523Z,15.25
2023-07-23T02:17:26.510Z,15.19
2023-07-23T02:19:53.306Z,15.17
2023-07-23T02:22:22.179Z,15.18
2023-07-23T02:24:51.577Z,15.15
2023-07-23T02:27:20.268Z,15.14
2023-07-23T02:29:47.270Z,15.05
2023-07-23T02:32:16.820Z,15.03
2023-07-23T02:34:43.512Z,15.01
2023-07-23T02:37:10.113Z,14.98
2023-07-23T02:39:39.638Z,14.99
2023-07-23T02:42:08.460Z,14.92
2023-07-23T02:44:38.440Z,14.96
2023-07-23T02:47:05.036Z,14.89
2023-07-23T02:49:31.612Z,14.92
2023-07-23T02:52:02.403Z,14.91
2023-07-23T02:54:31.258Z,14.90
2023-07-23T02:57:03.110Z,14.89
2023-07-23T02:59:29.653Z,14.83
2023-07-23T03:01:58.566Z,14.76
2023-07-23T03:04:28.581Z,14.71
2023-07-23T03:07:00.008Z,14.62
2023-07-23T03:09:28.918Z,14.54
2023-07-23T03:11:55.574Z,14.56
2023-07-23T03:14:24.663Z,14.51
2023-07-23T03:16:54.213Z,14.51
2023-07-23T03:19:23.383Z,14.49
2023-07-23T03:21:52.489Z,14.38
2023-07-23T03:24:19.122Z,14.52
2023-07-23T03:26:46.117Z,14.55
2023-07-23T03:29:15.391Z,14.47
2023-07-23T03:31:45.074Z,14.51
2023-07-23T03:34:11.647Z,14.43
2023-07-23T03:36:40.454Z,14.42
2023-07-23T03:39:09.157Z,14.40
2023-07-23T03:41:35.795Z,14.37
2023-07-23T03:44:02.747Z,14.36
2023-07-23T03:46:29.853Z,14.36
2023-07-23T03:48:56.822Z,14.36
2023-07-23T03:51:23.457Z,14.30
2023-07-23T03:53:50.345Z,14.27
2023-07-23T03:56:19.650Z,14.26
2023-07-23T03:58:48.648Z,14.34
2023-07-23T04:01:15.408Z,14.26
2023-07-23T04:03:49.349Z,14.29
2023-07-23T04:06:18.230Z,14.33
2023-07-23T04:08:47.040Z,14.34
2023-07-23T04:11:13.740Z,14.34
2023-07-23T04:13:40.483Z,14.35
2023-07-23T04:16:11.954Z,14.29
2023-07-23T04:18:49.894Z,14.36
2023-07-23T04:21:20.243Z,14.39
2023-07-23T04:23:48.305Z,14.46
2023-07-23T04:26:23.094Z,14.38
2023-07-23T04:28:50.763Z,14.31
2023-07-23T04:31:19.801Z,14.34
2023-07-23T04:33:49.439Z,14.38
2023-07-23T04:36:16.572Z,14.43
2023-07-23T04:38:48.492Z,14.46
2023-07-23T04:41:18.009Z,14.54
2023-07-23T04:43:47.018Z,14.56
2023-07-23T04:46:19.242Z,14.46
2023-07-23T04:48:45.888Z,14.52
2023-07-23T04:51:15.063Z,14.63
2023-07-23T04:53:41.692Z,14.85
2023-07-23T04:56:10.919Z,15.00
2023-07-23T04:58:39.803Z,15.39
2023-07-23T05:01:14.496Z,15.39
2023-07-23T05:03:41.745Z,15.48
2023-07-23T05:06:12.925Z,15.72
2023-07-23T05:08:44.857Z,15.80
2023-07-23T05:11:11.905Z,15.43
2023-07-23T05:13:38.626Z,15.54
2023-07-23T05:16:05.394Z,15.74
2023-07-23T05:18:35.144Z,15.71
2023-07-23T05:21:08.084Z,16.42
2023-07-23T05:23:36.927Z,16.62
2023-07-23T05:26:06.078Z,17.73
2023-07-23T05:28:35.209Z,18.03
2023-07-23T05:31:04.518Z,19.02
2023-07-23T05:33:31.776Z,19.05
2023-07-23T05:35:59.376Z,18.42
2023-07-23T05:38:28.429Z,18.19
2023-07-23T05:40:56.626Z,18.44
2023-07-23T05:43:23.682Z,18.50
2023-07-23T05:45:55.208Z,18.86
2023-07-23T05:48:22.167Z,18.94
2023-07-23T05:50:48.882Z,19.16
2023-07-23T05:53:17.814Z,19.05
2023-07-23T05:55:44.550Z,18.75
2023-07-23T05:58:13.488Z,18.84
2023-07-23T06:00:42.418Z,18.33
2023-07-23T06:03:09.201Z,17.79
2023-07-23T06:05:35.833Z,18.14
2023-07-23T06:08:07.185Z,17.84
2023-07-23T06:10:36.203Z,17.91
2023-07-23T06:13:03.155Z,18.28
2023-07-23T06:15:32.116Z,18.51
2023-07-23T06:18:03.579Z,19.11
2023-07-23T06:20:35.111Z,18.81
2023-07-23T06:23:02.491Z,18.95
2023-07-23T06:25:29.164Z,19.29
2023-07-23T06:27:58.226Z,19.88
2023-07-23T06:30:24.844Z,19.75
2023-07-23T06:32:51.594Z,21.95
2023-07-23T06:35:18.348Z,22.61
2023-07-23T06:37:45.099Z,22.66
2023-07-23T06:40:11.855Z,22.61
2023-07-23T06:42:38.810Z,21.47
2023-07-23T06:45:08.505Z,21.16
2023-07-23T06:47:40.056Z,21.85
2023-07-23T06:50:09.474Z,21.31
2023-07-23T06:52:38.821Z,21.15
2023-07-23T06:55:05.799Z,20.56
2023-07-23T06:57:34.812Z,20.94
2023-07-23T07:00:04.321Z,21.07
2023-07-23T07:02:31.165Z,20.85
2023-07-23T07:04:57.795Z,20.83
2023-07-23T07:07:24.790Z,20.58
2023-07-23T07:09:55.743Z,20.92
2023-07-23T07:12:24.556Z,21.06
2023-07-23T07:14:53.701Z,21.03
2023-07-23T07:17:20.324Z,21.06
2023-07-23T07:19:49.258Z,21.26
2023-07-23T07:22:18.405Z,21.08
2023-07-23T07:24:45.049Z,21.24
2023-07-23T07:27:16.063Z,21.00
2023-07-23T07:29:42.792Z,21.70
2023-07-23T07:32:11.770Z,22.24
2023-07-23T07:34:38.381Z,22.50
2023-07-23T07:37:09.834Z,22.60
2023-07-23T07:39:36.463Z,22.57
2023-07-23T07:42:05.363Z,23.02
2023-07-23T07:44:33.742Z,21.94
2023-07-23T07:47:00.844Z,22.07
2023-07-23T07:49:29.769Z,22.41
2023-07-23T07:51:58.967Z,21.94
2023-07-23T07:54:25.586Z,21.86
2023-07-23T07:56:52.664Z,21.77
2023-07-23T07:59:22.021Z,21.85
2023-07-23T08:01:51.708Z,22.15
2023-07-23T08:04:18.722Z,22.57
2023-07-23T08:06:48.221Z,22.29
2023-07-23T08:09:23.624Z,22.92
2023-07-23T08:11:50.637Z,22.76
2023-07-23T08:14:23.354Z,23.70
2023-07-23T08:16:53.638Z,23.09
2023-07-23T08:19:22.769Z,23.42
2023-07-23T08:21:51.850Z,23.39
2023-07-23T08:24:21.144Z,23.40
2023-07-23T08:26:50.684Z,23.52
2023-07-23T08:29:19.810Z,23.34
2023-07-23T08:31:46.828Z,23.42
2023-07-23T08:34:13.823Z,23.66
2023-07-23T08:36:40.767Z,24.08
2023-07-23T08:39:10.116Z,24.27
2023-07-23T08:41:40.128Z,24.36
2023-07-23T08:44:28.338Z,24.67
2023-07-23T08:47:08.804Z,24.90
2023-07-23T08:49:35.392Z,24.90
2023-07-23T08:52:05.962Z,24.92
2023-07-23T08:54:36.268Z,25.11
2023-07-23T08:57:05.878Z,24.81
2023-07-23T08:59:34.340Z,25.11
2023-07-23T09:02:03.873Z,25.08
2023-07-23T09:04:33.862Z,25.74
2023-07-23T09:07:01.755Z,25.95
2023-07-23T09:09:30.704Z,26.48
2023-07-23T09:11:59.644Z,26.02
2023-07-23T09:14:28.564Z,25.68
2023-07-23T09:16:55.571Z,25.83
2023-07-23T09:19:28.023Z,26.24
2023-07-23T09:22:00.909Z,26.51
2023-07-23T09:24:35.928Z,26.14
2023-07-23T09:27:03.658Z,26.19
2023-07-23T09:29:42.911Z,25.87
2023-07-23T09:32:27.769Z,26.01
2023-07-23T09:35:04.284Z,26.33
2023-07-23T09:37:34.641Z,26.33
2023-07-23T09:40:01.268Z,25.65
2023-07-23T09:42:27.972Z,26.04
2023-07-23T09:45:00.826Z,26.19
2023-07-23T09:47:31.304Z,26.29
2023-07-23T09:49:57.970Z,26.11
2023-07-23T09:52:35.251Z,26.29
2023-07-23T09:55:04.624Z,26.52
2023-07-23T09:57:35.304Z,26.63
2023-07-23T10:00:07.182Z,26.74
2023-07-23T10:02:41.715Z,26.54
2023-07-23T10:05:08.790Z,26.35
2023-07-23T10:07:39.316Z,26.41
2023-07-23T10:10:09.785Z,26.67
2023-07-23T10:12:38.613Z,26.21
2023-07-23T10:15:07.013Z,26.03
2023-07-23T10:17:40.424Z,25.94
2023-07-23T10:20:14.211Z,26.11
2023-07-23T10:22:45.174Z,26.56
2023-07-23T10:25:40.661Z,26.73
2023-07-23T10:28:10.400Z,27.22
2023-07-23T10:30:40.205Z,27.30
2023-07-23T10:33:13.545Z,27.21
2023-07-23T10:36:05.754Z,27.53
2023-07-23T10:38:36.801Z,27.17
2023-07-23T10:41:11.193Z,26.55
2023-07-23T10:43:39.496Z,26.96
2023-07-23T10:46:22.827Z,27.11
2023-07-23T10:48:56.327Z,27.14
2023-07-23T10:51:24.818Z,27.16
2023-07-23T10:53:57.308Z,26.91
2023-07-23T10:56:37.714Z,27.35
2023-07-23T10:59:10.650Z,27.72
2023-07-23T11:01:42.114Z,27.64
2023-07-23T11:04:37.483Z,27.33
2023-07-23T11:07:05.974Z,27.88
2023-07-23T11:09:34.627Z,27.90
2023-07-23T11:12:04.111Z,28.03
2023-07-23T11:14:31.698Z,27.89
2023-07-23T11:17:00.635Z,28.29
2023-07-23T11:19:31.410Z,28.11
2023-07-23T11:22:00.044Z,28.54
2023-07-23T11:24:31.595Z,28.26
2023-07-23T11:27:03.751Z,27.84
2023-07-23T11:29:34.645Z,28.09
2023-07-23T11:32:03.108Z,28.35
2023-07-23T11:34:30.064Z,28.43
2023-07-23T11:36:59.180Z,28.67
2023-07-23T11:39:30.552Z,28.56
2023-07-23T11:41:57.241Z,28.01
2023-07-23T11:44:24.036Z,28.53
2023-07-23T11:46:50.711Z,28.60
2023-07-23T11:49:17.377Z,28.59
2023-07-23T11:51:46.578Z,28.54
2023-07-23T11:54:20.286Z,28.36
2023-07-23T11:56:47.158Z,27.86
2023-07-23T11:59:19.524Z,28.61
2023-07-23T12:01:55.656Z,28.74
2023-07-23T12:04:22.713Z,28.82
2023-07-23T12:06:49.364Z,29.01
2023-07-23T12:09:18.258Z,29.10
2023-07-23T12:11:44.989Z,29.24
2023-07-23T12:14:16.149Z,29.08
2023-07-23T12:16:51.088Z,29.08
2023-07-23T12:19:22.100Z,29.23
2023-07-23T12:21:50.937Z,29.19
2023-07-23T12:24:28.237Z,29.21
2023-07-23T12:26:59.521Z,29.25
2023-07-23T12:29:30.387Z,29.45
2023-07-23T12:32:20.767Z,29.72
2023-07-23T12:34:52.300Z,29.62
2023-07-23T12:37:19.068Z,29.41
2023-07-23T12:39:49.717Z,29.80
2023-07-23T12:42:16.576Z,29.91
2023-07-23T12:44:45.441Z,29.76
2023-07-23T12:47:12.163Z,29.67
2023-07-23T12:49:41.032Z,28.88
2023-07-23T12:52:11.135Z,28.75
2023-07-23T12:54:39.942Z,29.06
2023-07-23T12:57:09.764Z,28.71
2023-07-23T12:59:39.795Z,28.99
2023-07-23T13:02:07.543Z,29.44
2023-07-23T13:04:34.648Z,29.91
2023-07-23T13:07:03.754Z,30.61
2023-07-23T13:09:32.587Z,30.28
2023-07-23T13:12:01.558Z,30.09
2023-07-23T13:14:30.584Z,30.22
2023-07-23T13:16:57.251Z,30.85
2023-07-23T13:19:26.449Z,30.74
2023-07-23T13:21:55.279Z,30.77
2023-07-23T13:24:26.697Z,30.95
2023-07-23T13:26:53.313Z,30.89
2023-07-23T13:29:22.462Z,30.70
2023-07-23T13:31:49.137Z,30.40
2023-07-23T13:34:15.919Z,30.93
2023-07-23T13:36:45.036Z,31.35
2023-07-23T13:39:14.888Z,30.74
2023-07-23T13:41:41.539Z,30.44
2023-07-23T13:44:10.345Z,30.44
2023-07-23T13:46:37.336Z,30.21
2023-07-23T13:49:03.973Z,29.74
2023-07-23T13:51:33.029Z,29.64
2023-07-23T13:53:59.601Z,29.35
2023-07-23T13:56:29.572Z,29.27
2023-07-23T13:58:58.835Z,29.82
2023-07-23T14:01:29.118Z,29.96
2023-07-23T14:04:00.676Z,30.05
2023-07-23T14:06:27.741Z,30.03
2023-07-23T14:08:57.486Z,30.49
2023-07-23T14:11:24.156Z,30.19
2023-07-23T14:13:52.971Z,30.17
2023-07-23T14:16:21.874Z,29.54
2023-07-23T14:18:48.935Z,28.87
2023-07-23T14:21:21.385Z,29.33
2023-07-23T14:23:48.068Z,28.90
2023-07-23T14:26:14.686Z,29.10
2023-07-23T14:28:41.299Z,28.96
2023-07-23T14:31:09.060Z,29.09
2023-07-23T14:33:38.130Z,29.24
2023-07-23T14:36:09.996Z,29.18
2023-07-23T14:38:37.435Z,29.33
2023-07-23T14:41:04.230Z,29.17
2023-07-23T14:43:34.860Z,29.41
2023-07-23T14:46:03.663Z,29.39
2023-07-23T14:48:30.372Z,29.60
2023-07-23T14:51:01.685Z,29.23
2023-07-23T14:53:28.675Z,29.43
2023-07-23T14:55:55.409Z,29.49
2023-07-23T14:58:24.467Z,29.94
2023-07-23T15:00:51.404Z,29.61
2023-07-23T15:03:20.802Z,29.69
2023-07-23T15:05:50.377Z,29.43
2023-07-23T15:08:17.096Z,29.32
2023-07-23T15:10:46.002Z,29.04
2023-07-23T15:13:12.842Z,29.25
2023-07-23T15:15:39.809Z,29.09
2023-07-23T15:18:09.451Z,29.13
2023-07-23T15:20:41.100Z,29.51
2023-07-23T15:23:07.937Z,29.87
2023-07-23T15:25:34.964Z,29.27
2023-07-23T15:28:06.980Z,29.37
2023-07-23T15:30:38.302Z,28.38
2023-07-23T15:33:07.674Z,28.82
2023-07-23T15:35:34.242Z,29.12
2023-07-23T15:38:00.902Z,29.39
2023-07-23T15:40:27.942Z,29.35
2023-07-23T15:42:57.042Z,29.01
2023-07-23T15:45:23.805Z,29.37
2023-07-23T15:47:50.467Z,28.98
2023-07-23T15:50:19.652Z,28.63
2023-07-23T15:52:48.482Z,28.22
2023-07-23T15:55:19.811Z,27.80
2023-07-23T15:57:46.432Z,27.54
2023-07-23T16:00:13.278Z,27.42
2023-07-23T16:02:39.894Z,27.61
2023-07-23T16:05:06.927Z,27.63
2023-07-23T16:07:33.618Z,27.41
2023-07-23T16:10:00.479Z,26.98
2023-07-23T16:12:29.685Z,27.20
2023-07-23T16:14:57.568Z,26.82
2023-07-23T16:17:25.787Z,26.67
2023-07-23T16:19:54.360Z,26.64
2023-07-23T16:22:25.973Z,26.67
2023-07-23T16:24:55.137Z,26.39
2023-07-23T16:27:26.454Z,26.56
2023-07-23T16:29:53.110Z,26.53
2023-07-23T16:32:20.158Z,26.48
2023-07-23T16:34:51.742Z,26.32
2023-07-23T16:37:19.787Z,26.37
2023-07-23T16:39:50.444Z,26.35
2023-07-23T16:42:19.340Z,26.55
2023-07-23T16:44:48.411Z,26.42
2023-07-23T16:47:15.030Z,26.37
2023-07-23T16:49:41.666Z,26.30
2023-07-23T16:52:08.369Z,26.23
2023-07-23T16:54:35.053Z,26.11
2023-07-23T16:57:02.004Z,25.90
2023-07-23T16:59:28.556Z,25.99
2023-07-23T17:01:55.152Z,26.10
2023-07-23T17:04:24.397Z,26.39
2023-07-23T17:06:53.509Z,26.60
2023-07-23T17:09:22.591Z,26.93
2023-07-23T17:11:49.349Z,26.94
2023-07-23T17:14:18.132Z,26.95
2023-07-23T17:16:45.127Z,26.88
2023-07-23T17:19:17.499Z,26.79
2023-07-23T17:21:49.385Z,26.74
2023-07-23T17:24:18.622Z,26.35
2023-07-23T17:26:45.455Z,26.29
2023-07-23T17:29:12.072Z,26.27
2023-07-23T17:31:38.698Z,26.47
2023-07-23T17:34:08.279Z,26.31
2023-07-23T17:36:34.823Z,26.18
2023-07-23T17:39:06.609Z,26.36
2023-07-23T17:41:35.689Z,26.11
2023-07-23T17:44:02.349Z,26.27
2023-07-23T17:46:31.223Z,26.00
2023-07-23T17:49:00.446Z,26.02
2023-07-23T17:51:27.209Z,25.85
2023-07-23T17:53:56.538Z,25.84
2023-07-23T17:56:25.446Z,25.75
2023-07-23T17:58:54.761Z,25.77
2023-07-23T18:01:30.773Z,25.83
2023-07-23T18:04:02.521Z,25.77
2023-07-23T18:06:32.185Z,25.76
2023-07-23T18:08:59.253Z,25.82
2023-07-23T18:11:34.625Z,25.51
2023-07-23T18:14:03.463Z,25.63
2023-07-23T18:16:30.888Z,25.63
2023-07-23T18:19:00.659Z,25.57
2023-07-23T18:21:27.243Z,25.47
2023-07-23T18:23:53.944Z,25.41
2023-07-23T18:26:20.646Z,25.30
2023-07-23T18:28:51.773Z,25.10
2023-07-23T18:31:33.743Z,24.97
2023-07-23T18:34:07.071Z,24.87
2023-07-23T18:36:36.499Z,24.74
2023-07-23T18:39:05.394Z,24.64
2023-07-23T18:41:36.392Z,24.47
2023-07-23T18:44:03.580Z,24.42
2023-07-23T18:46:30.666Z,24.22
2023-07-23T18:49:00.032Z,24.15
2023-07-23T18:51:28.702Z,23.97
2023-07-23T18:53:58.545Z,24.01
2023-07-23T18:56:25.436Z,23.94
2023-07-23T18:58:55.246Z,23.91
2023-07-23T19:01:22.076Z,23.77
2023-07-23T19:03:55.790Z,23.74
2023-07-23T19:06:24.932Z,23.44
2023-07-23T19:08:52.082Z,23.63
2023-07-23T19:11:18.766Z,23.57
2023-07-23T19:13:47.639Z,23.42
2023-07-23T19:16:16.917Z,23.35
2023-07-23T19:18:48.570Z,23.18
2023-07-23T19:21:17.717Z,23.11
2023-07-23T19:23:46.953Z,23.04
2023-07-23T19:26:16.293Z,23.04
2023-07-23T19:28:45.563Z,23.03
2023-07-23T19:31:12.636Z,23.03
2023-07-23T19:33:41.597Z,23.01
2023-07-23T19:36:10.475Z,22.95
2023-07-23T19:38:39.676Z,22.91
2023-07-23T19:41:06.432Z,22.89
2023-07-23T19:43:33.112Z,22.93
2023-07-23T19:46:05.204Z,23.09
2023-07-23T19:48:36.516Z,23.09
2023-07-23T19:51:03.249Z,23.02
2023-07-23T19:53:32.279Z,22.72
2023-07-23T19:55:59.016Z,22.78
2023-07-23T19:58:28.804Z,22.54
2023-07-23T20:00:55.467Z,22.58
2023-07-23T20:03:24.497Z,22.63
2023-07-23T20:05:54.643Z,22.42
2023-07-23T20:08:24.470Z,22.50
2023-07-23T20:10:51.192Z,22.53
2023-07-23T20:13:22.437Z,22.47
2023-07-23T20:15:50.399Z,22.48
2023-07-23T20:18:17.113Z,22.40
2023-07-23T20:20:51.100Z,22.30
2023-07-23T20:23:20.796Z,22.25
2023-07-23T20:25:54.827Z,22.16
2023-07-23T20:28:22.328Z,22.06
2023-07-23T20:30:51.803Z,21.96
2023-07-23T20:33:20.949Z,21.88
2023-07-23T20:35:52.481Z,21.89
2023-07-23T20:38:20.162Z,21.93
2023-07-23T20:40:48.023Z,21.88
2023-07-23T20:43:14.978Z,21.82
2023-07-23T20:45:44.069Z,21.78
2023-07-23T20:48:10.686Z,21.72
2023-07-23T20:50:42.197Z,21.64
2023-07-23T20:53:13.609Z,21.57
2023-07-23T20:55:40.250Z,21.65
2023-07-23T20:58:07.158Z,21.67
2023-07-23T21:00:35.186Z,21.60
2023-07-23T21:03:01.880Z,21.47
2023-07-23T21:05:28.520Z,21.43
2023-07-23T21:07:55.125Z,21.36
2023-07-23T21:10:21.850Z,21.44
2023-07-23T21:12:53.100Z,21.53
2023-07-23T21:15:19.737Z,21.38
2023-07-23T21:17:46.598Z,21.33
2023-07-23T21:20:15.551Z,21.34
2023-07-23T21:22:46.621Z,21.21
2023-07-23T21:25:13.343Z,20.98
2023-07-23T21:27:44.711Z,20.96
2023-07-23T21:30:11.680Z,21.26
2023-07-23T21:32:43.454Z,21.28
2023-07-23T21:35:13.367Z,21.11
2023-07-23T21:37:40.206Z,21.13
2023-07-23T21:40:10.076Z,21.07
2023-07-23T21:42:36.661Z,20.98
2023-07-23T21:45:03.585Z,21.00
2023-07-23T21:47:32.533Z,20.98
2023-07-23T21:49:59.190Z,20.92
2023-07-23T21:52:25.817Z,20.75
2023-07-23T21:54:54.642Z,20.87
2023-07-23T21:57:21.300Z,20.85
2023-07-23T21:59:50.089Z,20.93
2023-07-23T22:02:17.178Z,20.89
2023-07-23T22:04:46.918Z,20.94
2023-07-23T22:07:17.660Z,20.90
2023-07-23T22:09:47.356Z,20.86
2023-07-23T22:12:16.300Z,20.86
2023-07-23T22:14:42.991Z,20.86
2023-07-23T22:17:11.785Z,20.86
2023-07-23T22:19:38.454Z,20.80
2023-07-23T22:22:05.511Z,20.75
2023-07-23T22:24:32.156Z,20.77
2023-07-23T22:26:58.940Z,20.50
2023-07-23T22:29:28.173Z,20.36
2023-07-23T22:31:57.265Z,20.48
2023-07-23T22:34:24.033Z,20.44
2023-07-23T22:36:50.594Z,20.25
2023-07-23T22:39:19.293Z,20.32
2023-07-23T22:41:48.293Z,20.35
2023-07-23T22:44:22.359Z,20.35
2023-07-23T22:46:50.348Z,20.36
2023-07-23T22:49:21.771Z,20.35
2023-07-23T22:51:50.758Z,20.30
2023-07-23T22:54:22.176Z,20.24
2023-07-23T22:56:49.007Z,20.14
2023-07-23T22:59:20.319Z,20.17
2023-07-23T23:01:54.022Z,20.14
2023-07-23T23:04:23.052Z,20.09
2023-07-23T23:06:49.842Z,20.04
2023-07-23T23:09:21.261Z,19.90
2023-07-23T23:11:47.820Z,19.92
2023-07-23T23:14:14.436Z,19.96
2023-07-23T23:16:43.361Z,19.94
2023-07-23T23:19:15.323Z,19.90
2023-07-23T23:21:41.989Z,20.00
2023-07-23T23:24:13.296Z,19.93
2023-07-23T23:26:43.538Z,19.97
2023-07-23T23:29:10.118Z,19.98
2023-07-23T23:31:36.722Z,19.99
2023-07-23T23:34:03.411Z,20.02
2023-07-23T23:36:30.451Z,20.01
2023-07-23T23:38:57.386Z,19.96
2023-07-23T23:41:24.008Z,19.93
2023-07-23T23:43:52.953Z,19.89
2023-07-23T23:46:21.925Z,19.90
2023-07-23T23:48:48.595Z,19.86
2023-07-23T23:51:15.308Z,19.82
2023-07-23T23:53:46.788Z,19.74
2023-07-23T23:56:13.477Z,19.58
2023-07-23T23:58:43.213Z,19.73
